CheckWX is a tool to help pilots better visualize weather data.  It is not intended as a substitute for an official pre-flight weather briefing.

06:45:52 UTC

KLAW METAR
Lawton-Fort Sill Regional Airport
Lawton, Oklahoma, USA
Current

53 mins ago

KLAW 230553Z AUTO 07007KT 10SM OVC036 20/18 A3000 RMK AO2 LTG DSNT N SLP151 60001 T02000178 10228 20200 402440167 58005
Observed
Apr-23 @ 05:53 UTC
Wind
  • 070° at 7 KTS
Visibility
10 SM
Flight Rules
VFR
Cloud Levels
  • Overcast at 3,600' AGL
Temperature
20°C / 68°F
Dewpoint
18°C / 64°F
Humidity
88%
Altimeter
30" Hg
Pressure
1015.92 hPa
Previous

2 hours ago

KLAW 230453Z AUTO 10005KT 10SM FEW034 BKN044 OVC055 20/18 A3001 RMK AO2 LTG DSNT NW RAE33 SLP154 P0001 T02000178
Observed
Apr-23 @ 04:53 UTC
Wind
  • 100° at 5 KTS
Visibility
10 SM
Flight Rules
VFR
Cloud Levels
  • Few at 3,400' AGL
  • Broken at 4,400' AGL
  • Overcast at 5,500' AGL
Temperature
20°C / 68°F
Dewpoint
18°C / 64°F
Humidity
88%
Altimeter
30.01" Hg
Pressure
1016.22 hPa
Current Rain
0.01"
Previous

3 hours ago

KLAW 230353Z AUTO 09009KT 10SM -RA SCT036 BKN044 OVC110 21/18 A3001 RMK AO2 LTG DSNT W RAB44 SLP154 P0000 T02110178
Observed
Apr-23 @ 03:53 UTC
Wind
  • 090° at 9 KTS
Visibility
10 SM
Flight Rules
VFR
Conditions
Light Rain
Cloud Levels
  • Scattered at 3,600' AGL
  • Broken at 4,400' AGL
  • Overcast at 11,000' AGL
Temperature
21°C / 70°F
Dewpoint
18°C / 64°F
Humidity
83%
Altimeter
30.01" Hg
Pressure
1016.22 hPa
Current Rain
0.01"